Post, TX

11:35 PM CDT on October 22, 2014 (GMT -0500)
WT_Meso Post 1S | Change Station
CLOSE
Current Station
Personal Weather Station
Location: Post, TX
Elevation: 2598 ft
Nearby Weather Stations

Elev 2598 ft 33.20 °N, 101.37 °W | Updated 40 minutes ago

Partly Cloudy
Partly Cloudy
59 °F
Feels Like 59 °F
N
0
Wind Variable Wind from South
Gusts 1.0 mph

Today
High -- | Low -- °F
--% Chance of Precip.
Yesterday
High -- | Low -- °F
Precip. -- in
7:55 AM 7:03 PM
Waning Crescent, 1% visible
Pressure 30.04 in
Visibility 6.0 miles
Clouds Mostly Cloudy 900 ft
Dew Point 58 °F
Humidity 99%
Rainfall -999.00 in
Snow Depth Not available.
UV 0 out of 12
Pollen 4.10 out of 12
Air Quality Not available.
Flu Activity Sporadic
METAR KLBB 230353Z 17009KT 6SM BR BKN009 16/14 A3014 RMK AO2 CIG 007V012 SLP173 T01610139

More Conditions Fewer Conditions

Pressure 30.04 in
Visibility 6.0 miles
Clouds Mostly Cloudy 900 ft
Dew Point 58 °F
Humidity 99%
Rainfall -999.00 in
Snow Depth Not available.
UV 0 out of 12
Pollen 4.10 out of 12
Air Quality Not available.
Flu Activity Sporadic
METAR KLBB 230353Z 17009KT 6SM BR BKN009 16/14 A3014 RMK AO2 CIG 007V012 SLP173 T01610139

More Conditions Fewer Conditions

10-Day Weather Forecast

Almanac

Astronomy

Oct. 22, 2014 Rise Set
Actual Time 7:55 AM CDT 7:03 PM CDT
Civil Twilight 7:30 AM CDT 7:29 PM CDT
Nautical Twilight 7:01 AM CDT 7:58 PM CDT
Astronomical Twilight 6:32 AM CDT 8:26 PM CDT
Moon 6:42 AM CDT (10/22) 6:29 PM CDT (10/22)
Length of Visible Light 11h 58m
Length of Day
11h 08m
Tomorrow will be 1m 54s shorter.
Waning Crescent, 1% of the Moon is Illuminated
Oct 23
Waning Crescent
Oct 23
New
Oct 30
First Quarter
Nov 6
Full
Nov 14
Last Quarter

Yesterday's Extremes

State Highs State Lows

Community

WunderPhotos

Upload Photos

1,764,154 photos uploaded!

Nearby

Snow Depth

Station Depth Elevation
No new snow has been reported.

Earthquake Activity

City Distance Mag. Time & Date
No recent earthquake activity has been reported nearby.
Minimum magnitude displayed is 2.5.

Coastal Water Temperatures

Place Temperature
No Stations Reporting

Nearby Weather Stations